createdAt,value
2023-05-10T00:01:23.611Z,100452.88
2023-05-10T00:03:51.043Z,100444.25
2023-05-10T00:06:17.995Z,100447.88
2023-05-10T00:08:45.013Z,100452.63
2023-05-10T00:11:11.981Z,100450.91
2023-05-10T00:13:40.155Z,100445.19
2023-05-10T00:16:07.690Z,100448.81
2023-05-10T00:18:34.637Z,100450.75
2023-05-10T00:21:02.270Z,100433.28
2023-05-10T00:23:29.149Z,100442.47
2023-05-10T00:25:56.087Z,100433.16
2023-05-10T00:28:23.110Z,100433.38
2023-05-10T00:30:50.021Z,100434.34
2023-05-10T00:33:17.085Z,100427.56
2023-05-10T00:35:43.976Z,100422.44
2023-05-10T00:38:10.899Z,100424.25
2023-05-10T00:40:38.672Z,100416.84
2023-05-10T00:43:11.090Z,100414.47
2023-05-10T00:45:38.414Z,100414.84
2023-05-10T00:48:05.749Z,100411.81
2023-05-10T00:50:34.028Z,100409.91
2023-05-10T00:53:01.178Z,100401.59
2023-05-10T00:55:28.410Z,100400.66
2023-05-10T00:57:56.600Z,100403.56
2023-05-10T01:00:23.546Z,100401.72
2023-05-10T01:02:51.510Z,100396.88
2023-05-10T01:05:18.984Z,100395.16
2023-05-10T01:07:45.977Z,100396.97
2023-05-10T01:10:13.860Z,100395.16
2023-05-10T01:12:42.588Z,100391.38
2023-05-10T01:15:10.604Z,100380.88
2023-05-10T01:17:40.274Z,100387.06
2023-05-10T01:20:09.671Z,100377.72
2023-05-10T01:23:02.025Z,100379.63
2023-05-10T01:25:37.920Z,100377.50
2023-05-10T01:28:17.093Z,100372.44
2023-05-10T01:31:04.402Z,100364.91
2023-05-10T01:33:47.646Z,100366.72
2023-05-10T01:36:28.686Z,100365.59
2023-05-10T01:39:17.460Z,100358.59
2023-05-10T01:42:09.479Z,100364.88
2023-05-10T01:44:56.655Z,100362.91
2023-05-10T01:47:37.324Z,100355.84
2023-05-10T01:50:06.625Z,100360.72
2023-05-10T01:52:39.160Z,100356.69
2023-05-10T01:55:09.970Z,100364.00
2023-05-10T01:57:37.711Z,100359.81
2023-05-10T02:00:08.962Z,100355.59
2023-05-10T02:02:46.559Z,100354.59
2023-05-10T02:05:15.025Z,100348.22
2023-05-10T02:07:42.362Z,100352.78
2023-05-10T02:10:11.045Z,100359.59
2023-05-10T02:12:41.376Z,100355.56
2023-05-10T02:15:09.325Z,100354.69
2023-05-10T02:17:38.582Z,100347.91
2023-05-10T02:20:08.630Z,100348.31
2023-05-10T02:22:37.378Z,100342.13
2023-05-10T02:25:05.936Z,100342.56
2023-05-10T02:27:34.694Z,100342.97
2023-05-10T02:30:02.221Z,100345.63
2023-05-10T02:32:30.654Z,100345.13
2023-05-10T02:34:58.526Z,100349.22
2023-05-10T02:37:26.556Z,100341.63
2023-05-10T02:39:55.240Z,100341.84
2023-05-10T02:42:25.492Z,100341.47
2023-05-10T02:44:54.966Z,100334.63
2023-05-10T02:47:22.446Z,100341.75
2023-05-10T02:49:49.710Z,100332.41
2023-05-10T02:52:22.758Z,100336.25
2023-05-10T02:54:52.687Z,100341.34
2023-05-10T02:57:25.563Z,100344.00
2023-05-10T02:59:52.726Z,100341.44
2023-05-10T03:02:19.758Z,100338.69
2023-05-10T03:04:46.911Z,100337.72
2023-05-10T03:07:14.461Z,100337.50
2023-05-10T03:09:41.490Z,100341.44
2023-05-10T03:12:22.481Z,100333.06
2023-05-10T03:15:07.281Z,100338.81
2023-05-10T03:17:46.050Z,100336.50
2023-05-10T03:20:20.333Z,100338.09
2023-05-10T03:22:53.401Z,100332.44
2023-05-10T03:25:22.727Z,100336.09
2023-05-10T03:27:52.339Z,100335.97
2023-05-10T03:30:20.741Z,100332.81
2023-05-10T03:32:47.783Z,100328.81
2023-05-10T03:35:17.148Z,100321.63
2023-05-10T03:37:45.810Z,100322.44
2023-05-10T03:40:12.946Z,100329.06
2023-05-10T03:42:42.448Z,100327.28
2023-05-10T03:45:10.107Z,100323.66
2023-05-10T03:47:36.997Z,100319.63
2023-05-10T03:50:04.336Z,100319.19
2023-05-10T03:52:33.567Z,100319.28
2023-05-10T03:55:00.459Z,100321.97
2023-05-10T03:57:27.440Z,100314.09
2023-05-10T03:59:54.335Z,100323.78
2023-05-10T04:02:21.233Z,100324.94
2023-05-10T04:04:48.467Z,100328.25
2023-05-10T04:07:15.686Z,100321.31
2023-05-10T04:09:42.857Z,100325.25
2023-05-10T04:12:11.056Z,100325.06
2023-05-10T04:14:38.924Z,100317.38
2023-05-10T04:17:06.274Z,100318.34
2023-05-10T04:19:33.422Z,100324.28
2023-05-10T04:22:01.235Z,100323.78
2023-05-10T04:24:28.168Z,100322.19
2023-05-10T04:26:57.795Z,100315.56
2023-05-10T04:29:24.934Z,100311.94
2023-05-10T04:31:52.236Z,100309.28
2023-05-10T04:34:22.393Z,100301.56
2023-05-10T04:36:49.332Z,100306.69
2023-05-10T04:39:16.278Z,100306.09
2023-05-10T04:41:43.204Z,100307.56
2023-05-10T04:44:10.349Z,100304.81
2023-05-10T04:46:37.578Z,100306.88
2023-05-10T04:49:05.083Z,100312.31
2023-05-10T04:51:32.603Z,100311.63
2023-05-10T04:54:05.990Z,100309.47
2023-05-10T04:56:34.004Z,100316.25
2023-05-10T04:59:00.921Z,100312.38
2023-05-10T05:01:27.905Z,100312.38
2023-05-10T05:03:55.011Z,100308.28
2023-05-10T05:06:22.659Z,100302.44
2023-05-10T05:08:50.989Z,100308.16
2023-05-10T05:11:18.612Z,100310.38
2023-05-10T05:13:45.536Z,100302.56
2023-05-10T05:16:12.686Z,100307.38
2023-05-10T05:18:39.784Z,100311.31
2023-05-10T05:21:17.356Z,100305.84
2023-05-10T05:23:44.361Z,100314.69
2023-05-10T05:26:12.013Z,100301.72
2023-05-10T05:28:40.271Z,100303.47
2023-05-10T05:31:09.056Z,100300.56
2023-05-10T05:33:36.095Z,100305.88
2023-05-10T05:36:04.554Z,100298.38
2023-05-10T05:38:32.744Z,100304.06
2023-05-10T05:40:59.654Z,100300.66
2023-05-10T05:43:26.886Z,100309.41
2023-05-10T05:45:55.032Z,100303.94
2023-05-10T05:48:22.712Z,100301.16
2023-05-10T05:50:49.598Z,100300.81
2023-05-10T05:53:17.113Z,100299.38
2023-05-10T05:55:58.798Z,100299.25
2023-05-10T05:58:26.578Z,100293.91
2023-05-10T06:00:53.852Z,100284.66
2023-05-10T06:03:21.240Z,100290.22
2023-05-10T06:05:48.238Z,100297.63
2023-05-10T06:08:15.093Z,100286.81
2023-05-10T06:10:42.020Z,100301.94
2023-05-10T06:13:09.261Z,100297.22
2023-05-10T06:15:36.210Z,100288.09
2023-05-10T06:18:03.277Z,100289.66
2023-05-10T06:20:32.718Z,100281.50
2023-05-10T06:22:59.955Z,100289.72
2023-05-10T06:25:27.547Z,100290.69
2023-05-10T06:27:58.561Z,100284.97
2023-05-10T06:30:30.354Z,100295.47
2023-05-10T06:32:57.664Z,100293.00
2023-05-10T06:35:25.391Z,100286.56
2023-05-10T06:37:52.697Z,100293.34
2023-05-10T06:40:20.440Z,100283.75
2023-05-10T06:42:48.262Z,100289.56
2023-05-10T06:45:16.504Z,100289.16
2023-05-10T06:47:44.284Z,100295.41
2023-05-10T06:50:12.677Z,100285.31
2023-05-10T06:52:39.927Z,100288.41
2023-05-10T06:55:07.515Z,100287.31
2023-05-10T06:57:34.424Z,100284.16
2023-05-10T07:00:01.448Z,100278.53
2023-05-10T07:02:29.473Z,100291.09
2023-05-10T07:04:56.509Z,100280.84
2023-05-10T07:07:23.832Z,100280.59
2023-05-10T07:09:53.340Z,100279.06
2023-05-10T07:12:20.455Z,100276.13
2023-05-10T07:14:47.877Z,100281.09
2023-05-10T07:17:14.721Z,100279.44
2023-05-10T07:19:41.662Z,100275.75
2023-05-10T07:22:09.106Z,100276.75
2023-05-10T07:24:36.328Z,100263.09
2023-05-10T07:27:03.394Z,100271.56
2023-05-10T07:29:30.832Z,100274.81
2023-05-10T07:31:58.877Z,100260.31
2023-05-10T07:34:26.560Z,100270.38
2023-05-10T07:36:53.846Z,100275.28
2023-05-10T07:39:27.853Z,100263.63
2023-05-10T07:41:58.380Z,100272.38
2023-05-10T07:44:25.364Z,100275.63
2023-05-10T07:46:52.429Z,100275.34
2023-05-10T07:49:20.357Z,100277.47
2023-05-10T07:51:47.197Z,100271.00
2023-05-10T07:54:14.954Z,100262.06
2023-05-10T07:56:50.295Z,100267.50
2023-05-10T07:59:18.280Z,100264.94
2023-05-10T08:01:45.774Z,100264.25
2023-05-10T08:04:13.060Z,100266.09
2023-05-10T08:06:40.940Z,100265.34
2023-05-10T08:09:07.895Z,100261.00
2023-05-10T08:11:35.213Z,100255.50
2023-05-10T08:14:02.720Z,100255.91
2023-05-10T08:16:30.144Z,100260.56
2023-05-10T08:18:57.160Z,100262.69
2023-05-10T08:21:24.485Z,100255.31
2023-05-10T08:23:51.548Z,100267.31
2023-05-10T08:26:18.389Z,100265.03
2023-05-10T08:28:45.283Z,100263.63
2023-05-10T08:31:12.208Z,100254.97
2023-05-10T08:33:39.638Z,100257.94
2023-05-10T08:36:08.651Z,100258.63
2023-05-10T08:38:35.771Z,100254.38
2023-05-10T08:41:03.805Z,100258.84
2023-05-10T08:43:31.414Z,100258.84
2023-05-10T08:46:02.613Z,100262.25
2023-05-10T08:48:30.890Z,100257.69
2023-05-10T08:50:59.697Z,100244.06
2023-05-10T08:53:28.552Z,100254.13
2023-05-10T08:55:56.802Z,100247.06
2023-05-10T08:58:23.711Z,100252.00
2023-05-10T09:00:54.056Z,100252.81
2023-05-10T09:03:21.119Z,100256.75
2023-05-10T09:05:48.997Z,100258.81
2023-05-10T09:08:17.568Z,100249.78
2023-05-10T09:10:45.703Z,100259.69
2023-05-10T09:13:13.160Z,100255.84
2023-05-10T09:15:40.318Z,100253.25
2023-05-10T09:18:07.442Z,100259.09
2023-05-10T09:20:34.371Z,100262.03
2023-05-10T09:23:01.512Z,100262.66
2023-05-10T09:25:28.399Z,100260.28
2023-05-10T09:27:56.402Z,100266.00
2023-05-10T09:30:27.628Z,100238.38
2023-05-10T09:32:55.157Z,100267.34
2023-05-10T09:35:25.916Z,100258.28
2023-05-10T09:37:56.284Z,100264.81
2023-05-10T09:40:28.099Z,100261.66
2023-05-10T09:43:08.118Z,100264.50
2023-05-10T09:45:38.679Z,100266.66
2023-05-10T09:48:06.380Z,100270.94
2023-05-10T09:50:33.369Z,100265.38
2023-05-10T09:53:02.107Z,100266.66
2023-05-10T09:55:43.061Z,100256.25
2023-05-10T09:58:12.862Z,100265.25
2023-05-10T10:00:49.011Z,100271.00
2023-05-10T10:03:17.827Z,100263.78
2023-05-10T10:05:45.418Z,100262.09
2023-05-10T10:08:13.604Z,100268.91
2023-05-10T10:10:47.223Z,100260.09
2023-05-10T10:13:15.170Z,100260.81
2023-05-10T10:15:43.466Z,100258.50
2023-05-10T10:18:13.965Z,100262.41
2023-05-10T10:20:40.946Z,100246.78
2023-05-10T10:23:09.414Z,100247.44
2023-05-10T10:25:36.819Z,100258.78
2023-05-10T10:28:23.797Z,100258.78
2023-05-10T10:30:52.619Z,100252.34
2023-05-10T10:33:48.312Z,100255.06
2023-05-10T10:36:16.546Z,100248.03
2023-05-10T10:38:50.155Z,100243.84
2023-05-10T10:41:29.178Z,100247.16
2023-05-10T10:44:25.713Z,100243.31
2023-05-10T10:47:19.756Z,100240.78
2023-05-10T10:49:52.858Z,100251.44
2023-05-10T10:52:34.933Z,100249.56
2023-05-10T10:55:12.312Z,100248.22
2023-05-10T10:57:42.593Z,100250.25
2023-05-10T11:00:24.592Z,100249.59
2023-05-10T11:03:14.721Z,100241.84
2023-05-10T11:05:46.792Z,100242.88
2023-05-10T11:08:23.061Z,100247.09
2023-05-10T11:10:53.365Z,100249.94
2023-05-10T11:13:39.027Z,100237.09
2023-05-10T11:16:14.777Z,100247.03
2023-05-10T11:18:42.451Z,100251.06
2023-05-10T11:21:11.912Z,100236.19
2023-05-10T11:23:45.391Z,100248.94
2023-05-10T11:26:12.862Z,100243.72
2023-05-10T11:28:49.854Z,100249.38
2023-05-10T11:31:18.120Z,100252.06
2023-05-10T11:33:53.987Z,100245.59
2023-05-10T11:36:34.907Z,100245.84
2023-05-10T11:39:03.120Z,100242.81
2023-05-10T11:41:31.240Z,100240.47
2023-05-10T11:43:59.187Z,100234.69
2023-05-10T11:46:28.182Z,100249.53
2023-05-10T11:49:03.147Z,100246.06
2023-05-10T11:51:30.372Z,100245.53
2023-05-10T11:53:59.126Z,100250.78
2023-05-10T11:56:27.776Z,100246.56
2023-05-10T11:58:56.970Z,100247.38
2023-05-10T12:01:25.239Z,100255.22
2023-05-10T12:03:55.040Z,100250.28
2023-05-10T12:06:22.814Z,100252.56
2023-05-10T12:08:53.733Z,100239.09
2023-05-10T12:11:23.040Z,100250.06
2023-05-10T12:13:51.191Z,100248.75
2023-05-10T12:16:19.007Z,100240.06
2023-05-10T12:18:47.017Z,100246.34
2023-05-10T12:21:14.045Z,100248.50
2023-05-10T12:23:41.123Z,100247.47
2023-05-10T12:26:10.237Z,100244.34
2023-05-10T12:28:38.672Z,100249.22
2023-05-10T12:31:07.324Z,100249.09
2023-05-10T12:33:44.952Z,100253.66
2023-05-10T12:36:13.548Z,100244.13
2023-05-10T12:38:44.452Z,100251.03
2023-05-10T12:41:13.230Z,100255.28
2023-05-10T12:43:41.169Z,100238.13
2023-05-10T12:46:12.994Z,100232.22
2023-05-10T12:48:41.036Z,100249.19
2023-05-10T12:51:13.055Z,100242.28
2023-05-10T12:53:44.231Z,100247.72
2023-05-10T12:56:12.117Z,100254.06
2023-05-10T12:58:39.608Z,100243.31
2023-05-10T13:01:06.881Z,100249.25
2023-05-10T13:03:33.987Z,100248.81
2023-05-10T13:06:01.296Z,100253.63
2023-05-10T13:08:28.229Z,100245.81
2023-05-10T13:10:55.151Z,100239.53
2023-05-10T13:13:22.083Z,100243.84
2023-05-10T13:15:48.949Z,100247.28
2023-05-10T13:18:18.710Z,100246.69
2023-05-10T13:20:46.039Z,100254.41
2023-05-10T13:23:13.093Z,100233.69
2023-05-10T13:25:40.568Z,100234.97
2023-05-10T13:28:07.497Z,100231.13
2023-05-10T13:30:35.342Z,100238.41
2023-05-10T13:33:02.265Z,100237.97
2023-05-10T13:35:29.201Z,100228.94
2023-05-10T13:37:58.868Z,100229.78
2023-05-10T13:40:26.146Z,100220.28
2023-05-10T13:42:55.287Z,100218.19
2023-05-10T13:45:22.253Z,100220.28
2023-05-10T13:47:49.145Z,100219.66
2023-05-10T13:50:16.281Z,100221.72
2023-05-10T13:52:43.201Z,100223.09
2023-05-10T13:55:14.516Z,100218.94
2023-05-10T13:57:44.023Z,100220.88
2023-05-10T14:00:11.675Z,100210.28
2023-05-10T14:02:38.600Z,100216.72
2023-05-10T14:05:05.963Z,100221.81
2023-05-10T14:07:32.904Z,100222.34
2023-05-10T14:09:59.859Z,100210.66
2023-05-10T14:12:27.086Z,100204.59
2023-05-10T14:14:54.306Z,100210.44
2023-05-10T14:17:21.228Z,100214.44
2023-05-10T14:19:48.651Z,100215.19
2023-05-10T14:22:15.855Z,100216.22
2023-05-10T14:24:42.965Z,100211.44
2023-05-10T14:27:09.926Z,100202.72
2023-05-10T14:29:36.871Z,100210.19
2023-05-10T14:32:04.240Z,100205.81
2023-05-10T14:34:32.660Z,100208.19
2023-05-10T14:36:59.843Z,100209.09
2023-05-10T14:39:27.044Z,100211.97
2023-05-10T14:41:54.320Z,100212.34
2023-05-10T14:44:21.354Z,100215.19
2023-05-10T14:46:49.987Z,100203.28
2023-05-10T14:49:16.980Z,100206.84
2023-05-10T14:51:43.945Z,100202.28
2023-05-10T14:54:10.804Z,100202.88
2023-05-10T14:56:39.002Z,100201.56
2023-05-10T14:59:05.910Z,100194.53
2023-05-10T15:01:34.260Z,100197.38
2023-05-10T15:04:01.920Z,100195.16
2023-05-10T15:06:33.325Z,100192.78
2023-05-10T15:09:00.658Z,100198.13
2023-05-10T15:11:27.910Z,100199.28
2023-05-10T15:13:54.795Z,100206.31
2023-05-10T15:16:24.323Z,100206.59
2023-05-10T15:18:51.426Z,100201.38
2023-05-10T15:21:18.293Z,100202.47
2023-05-10T15:23:45.499Z,100198.72
2023-05-10T15:26:12.465Z,100203.78
2023-05-10T15:28:39.299Z,100206.88
2023-05-10T15:31:06.327Z,100199.53
2023-05-10T15:33:33.619Z,100193.84
2023-05-10T15:36:00.492Z,100201.28
2023-05-10T15:38:27.380Z,100200.63
2023-05-10T15:40:57.828Z,100204.84
2023-05-10T15:43:24.653Z,100206.38
2023-05-10T15:45:52.097Z,100200.13
2023-05-10T15:48:19.338Z,100199.53
2023-05-10T15:50:46.241Z,100215.16
2023-05-10T15:53:13.141Z,100217.03
2023-05-10T15:55:40.014Z,100217.75
2023-05-10T15:58:06.892Z,100224.63
2023-05-10T16:00:33.970Z,100213.06
2023-05-10T16:03:01.206Z,100221.19
2023-05-10T16:05:32.183Z,100214.47
2023-05-10T16:07:59.710Z,100222.13
2023-05-10T16:10:26.903Z,100216.88
2023-05-10T16:12:56.585Z,100224.53
2023-05-10T16:15:23.807Z,100217.22
2023-05-10T16:17:51.374Z,100225.03
2023-05-10T16:20:18.462Z,100221.28
2023-05-10T16:22:45.385Z,100228.88
2023-05-10T16:25:13.668Z,100227.19
2023-05-10T16:27:40.942Z,100230.75
2023-05-10T16:30:08.678Z,100228.25
2023-05-10T16:32:35.677Z,100241.44
2023-05-10T16:35:02.535Z,100240.97
2023-05-10T16:37:29.400Z,100246.72
2023-05-10T16:39:56.253Z,100252.78
2023-05-10T16:42:24.317Z,100254.44
2023-05-10T16:44:51.116Z,100250.03
2023-05-10T16:47:18.321Z,100253.59
2023-05-10T16:49:45.209Z,100259.03
2023-05-10T16:52:12.048Z,100256.13
2023-05-10T16:54:39.526Z,100260.97
2023-05-10T16:57:06.593Z,100259.38
2023-05-10T16:59:33.931Z,100262.31
2023-05-10T17:02:01.060Z,100258.34
2023-05-10T17:04:28.090Z,100263.97
2023-05-10T17:06:55.100Z,100273.69
2023-05-10T17:09:21.991Z,100271.22
2023-05-10T17:11:48.905Z,100275.78
2023-05-10T17:14:15.748Z,100277.47
2023-05-10T17:16:42.680Z,100275.56
2023-05-10T17:19:09.759Z,100283.06
2023-05-10T17:21:37.021Z,100276.44
2023-05-10T17:24:04.410Z,100281.47
2023-05-10T17:26:31.468Z,100292.13
2023-05-10T17:28:58.730Z,100299.69
2023-05-10T17:31:25.732Z,100313.41
2023-05-10T17:33:53.080Z,100312.25
2023-05-10T17:36:20.497Z,100322.97
2023-05-10T17:38:47.720Z,100324.38
2023-05-10T17:41:15.330Z,100331.41
2023-05-10T17:43:42.193Z,100339.09
2023-05-10T17:46:09.267Z,100348.41
2023-05-10T17:48:37.314Z,100346.09
2023-05-10T17:51:04.614Z,100342.81
2023-05-10T17:53:31.604Z,100345.66
2023-05-10T17:55:59.288Z,100352.06
2023-05-10T17:58:26.300Z,100355.03
2023-05-10T18:00:53.414Z,100364.41
2023-05-10T18:03:20.965Z,100367.94
2023-05-10T18:05:48.178Z,100367.31
2023-05-10T18:08:15.533Z,100368.72
2023-05-10T18:10:43.968Z,100372.34
2023-05-10T18:13:11.548Z,100375.97
2023-05-10T18:15:38.740Z,100377.84
2023-05-10T18:18:05.969Z,100370.09
2023-05-10T18:20:32.914Z,100380.59
2023-05-10T18:22:59.848Z,100375.03
2023-05-10T18:25:27.309Z,100377.09
2023-05-10T18:27:54.550Z,100378.59
2023-05-10T18:30:23.076Z,100375.75
2023-05-10T18:32:50.257Z,100385.88
2023-05-10T18:35:17.288Z,100385.34
2023-05-10T18:37:44.318Z,100394.81
2023-05-10T18:40:14.498Z,100395.81
2023-05-10T18:42:46.773Z,100393.97
2023-05-10T18:45:14.489Z,100396.63
2023-05-10T18:47:41.580Z,100407.25
2023-05-10T18:50:08.788Z,100403.97
2023-05-10T18:52:37.210Z,100410.25
2023-05-10T18:55:04.451Z,100415.47
2023-05-10T18:57:31.556Z,100413.25
2023-05-10T18:59:58.598Z,100421.00
2023-05-10T19:02:27.006Z,100420.66
2023-05-10T19:04:54.045Z,100422.66
2023-05-10T19:07:21.049Z,100429.88
2023-05-10T19:09:49.453Z,100434.09
2023-05-10T19:12:16.323Z,100438.13
2023-05-10T19:14:43.145Z,100440.94
2023-05-10T19:17:11.477Z,100441.72
2023-05-10T19:19:39.469Z,100441.31
2023-05-10T19:22:06.934Z,100448.44
2023-05-10T19:24:34.658Z,100451.81
2023-05-10T19:27:03.195Z,100451.94
2023-05-10T19:29:30.605Z,100458.69
2023-05-10T19:31:58.004Z,100449.59
2023-05-10T19:34:25.321Z,100459.84
2023-05-10T19:36:52.287Z,100458.84
2023-05-10T19:39:19.809Z,100464.25
2023-05-10T19:41:47.066Z,100465.44
2023-05-10T19:44:13.992Z,100455.00
2023-05-10T19:46:40.967Z,100460.91
2023-05-10T19:49:08.199Z,100457.84
2023-05-10T19:51:35.180Z,100460.47
2023-05-10T19:54:02.468Z,100466.81
2023-05-10T19:56:29.950Z,100470.59
2023-05-10T19:58:57.230Z,100463.66
2023-05-10T20:01:24.216Z,100470.25
2023-05-10T20:03:52.475Z,100462.72
2023-05-10T20:06:19.494Z,100458.81
2023-05-10T20:08:46.446Z,100460.59
2023-05-10T20:11:13.469Z,100468.31
2023-05-10T20:13:40.386Z,100461.44
2023-05-10T20:16:07.741Z,100464.81
2023-05-10T20:18:34.723Z,100466.53
2023-05-10T20:21:01.767Z,100462.84
2023-05-10T20:23:28.794Z,100469.00
2023-05-10T20:25:55.702Z,100469.16
2023-05-10T20:28:24.246Z,100472.22
2023-05-10T20:30:53.254Z,100470.84
2023-05-10T20:33:20.920Z,100469.16
2023-05-10T20:35:48.622Z,100474.56
2023-05-10T20:38:15.623Z,100476.00
2023-05-10T20:40:42.507Z,100470.63
2023-05-10T20:43:09.483Z,100470.63
2023-05-10T20:45:39.522Z,100476.88
2023-05-10T20:48:06.739Z,100470.75
2023-05-10T20:50:33.780Z,100475.75
2023-05-10T20:53:01.325Z,100469.34
2023-05-10T20:55:28.777Z,100470.00
2023-05-10T20:57:55.786Z,100481.25
2023-05-10T21:00:22.734Z,100475.88
2023-05-10T21:02:49.794Z,100476.81
2023-05-10T21:05:20.094Z,100477.63
2023-05-10T21:07:47.100Z,100482.50
2023-05-10T21:10:14.011Z,100482.25
2023-05-10T21:12:41.304Z,100479.22
2023-05-10T21:15:09.900Z,100487.75
2023-05-10T21:17:37.215Z,100487.50
2023-05-10T21:20:04.416Z,100488.22
2023-05-10T21:22:31.467Z,100488.22
2023-05-10T21:24:58.688Z,100486.81
2023-05-10T21:27:25.588Z,100484.97
2023-05-10T21:29:52.650Z,100488.75
2023-05-10T21:32:20.192Z,100487.97
2023-05-10T21:34:47.098Z,100486.91
2023-05-10T21:37:15.957Z,100488.78
2023-05-10T21:39:43.169Z,100495.72
2023-05-10T21:42:11.681Z,100491.03
2023-05-10T21:44:46.392Z,100495.41
2023-05-10T21:47:14.072Z,100505.31
2023-05-10T21:49:41.004Z,100509.19
2023-05-10T21:52:08.213Z,100507.75
2023-05-10T21:54:40.738Z,100502.59
2023-05-10T21:57:09.043Z,100506.91
2023-05-10T21:59:35.914Z,100514.16
2023-05-10T22:02:02.901Z,100509.94
2023-05-10T22:04:30.028Z,100511.94
2023-05-10T22:06:57.234Z,100506.69
2023-05-10T22:09:25.585Z,100509.94
2023-05-10T22:11:53.811Z,100510.94
2023-05-10T22:14:20.843Z,100513.19
2023-05-10T22:16:47.835Z,100508.25
2023-05-10T22:19:16.045Z,100511.38
2023-05-10T22:21:42.943Z,100518.13
2023-05-10T22:24:09.791Z,100514.34
2023-05-10T22:26:37.150Z,100511.47
2023-05-10T22:29:04.277Z,100515.03
2023-05-10T22:31:32.753Z,100514.31
2023-05-10T22:34:02.439Z,100507.66
2023-05-10T22:36:30.339Z,100518.69
2023-05-10T22:38:57.364Z,100519.13
2023-05-10T22:41:24.273Z,100514.72
2023-05-10T22:43:52.332Z,100514.59
2023-05-10T22:46:19.370Z,100519.13
2023-05-10T22:48:46.339Z,100511.34
2023-05-10T22:51:13.213Z,100517.56
2023-05-10T22:53:41.882Z,100515.03
2023-05-10T22:56:09.069Z,100521.66
2023-05-10T22:58:36.987Z,100523.63
2023-05-10T23:01:04.837Z,100523.34
2023-05-10T23:03:32.159Z,100522.94
2023-05-10T23:05:59.476Z,100525.47
2023-05-10T23:08:27.492Z,100531.25
2023-05-10T23:10:54.348Z,100528.00
2023-05-10T23:13:22.031Z,100520.22
2023-05-10T23:15:49.175Z,100520.66
2023-05-10T23:18:16.239Z,100524.63
2023-05-10T23:20:43.211Z,100521.75
2023-05-10T23:23:11.800Z,100528.97
2023-05-10T23:25:38.825Z,100527.13
2023-05-10T23:28:05.918Z,100524.81
2023-05-10T23:30:32.824Z,100521.44
2023-05-10T23:32:59.764Z,100527.09
2023-05-10T23:35:27.121Z,100523.69
2023-05-10T23:37:55.208Z,100531.91
2023-05-10T23:40:22.357Z,100534.41
2023-05-10T23:42:49.567Z,100534.13
2023-05-10T23:45:17.314Z,100529.44
2023-05-10T23:47:44.422Z,100532.69
2023-05-10T23:50:11.481Z,100525.84
2023-05-10T23:52:38.699Z,100529.66
2023-05-10T23:55:05.860Z,100526.13
2023-05-10T23:57:32.786Z,100528.97
